createdAt,value
2023-05-05T00:01:34.295Z,14.67
2023-05-05T00:04:06.788Z,14.64
2023-05-05T00:06:39.578Z,14.59
2023-05-05T00:09:11.852Z,14.54
2023-05-05T00:11:46.671Z,14.51
2023-05-05T00:14:18.919Z,14.39
2023-05-05T00:16:51.397Z,14.36
2023-05-05T00:19:23.670Z,14.34
2023-05-05T00:21:55.896Z,14.32
2023-05-05T00:24:28.295Z,14.32
2023-05-05T00:27:04.134Z,14.33
2023-05-05T00:29:36.484Z,14.34
2023-05-05T00:32:09.029Z,14.36
2023-05-05T00:34:41.281Z,14.37
2023-05-05T00:37:13.480Z,14.39
2023-05-05T00:39:47.848Z,14.41
2023-05-05T00:42:22.680Z,14.43
2023-05-05T00:44:54.904Z,14.44
2023-05-05T00:47:27.140Z,14.44
2023-05-05T00:50:00.427Z,14.43
2023-05-05T00:52:32.969Z,14.40
2023-05-05T00:55:05.355Z,14.38
2023-05-05T00:57:40.308Z,14.37
2023-05-05T01:00:13.866Z,14.36
2023-05-05T01:02:46.349Z,14.35
2023-05-05T01:05:21.286Z,14.34
2023-05-05T01:08:06.267Z,14.34
2023-05-05T01:10:44.772Z,14.34
2023-05-05T01:13:33.235Z,14.35
2023-05-05T01:16:15.882Z,14.38
2023-05-05T01:18:58.072Z,14.40
2023-05-05T01:21:37.657Z,14.41
2023-05-05T01:24:43.034Z,14.45
2023-05-05T01:27:48.062Z,14.52
2023-05-05T01:30:42.171Z,14.59
2023-05-05T01:33:24.079Z,14.64
2023-05-05T01:36:02.734Z,14.69
2023-05-05T01:38:41.998Z,14.74
2023-05-05T01:41:19.247Z,14.79
2023-05-05T01:43:55.732Z,14.84
2023-05-05T01:46:29.350Z,14.89
2023-05-05T01:49:04.453Z,14.93
2023-05-05T01:51:38.364Z,14.97
2023-05-05T01:54:13.745Z,15.00
2023-05-05T01:56:48.395Z,15.03
2023-05-05T01:59:24.098Z,15.06
2023-05-05T02:01:57.194Z,15.09
2023-05-05T02:04:35.956Z,15.12
2023-05-05T02:07:10.186Z,15.15
2023-05-05T02:09:44.699Z,15.17
2023-05-05T02:12:18.085Z,15.20
2023-05-05T02:14:52.741Z,15.16
2023-05-05T02:17:27.389Z,15.19
2023-05-05T02:20:04.906Z,15.22
2023-05-05T02:22:37.674Z,15.24
2023-05-05T02:25:11.756Z,15.24
2023-05-05T02:27:47.710Z,15.21
2023-05-05T02:30:23.752Z,15.18
2023-05-05T02:33:04.176Z,15.14
2023-05-05T02:35:43.038Z,15.10
2023-05-05T02:38:20.178Z,15.04
2023-05-05T02:40:56.130Z,14.97
2023-05-05T02:43:33.631Z,14.91
2023-05-05T02:46:06.151Z,14.85
2023-05-05T02:48:38.384Z,14.78
2023-05-05T02:51:13.198Z,14.70
2023-05-05T02:53:45.772Z,14.60
2023-05-05T02:56:30.586Z,14.51
2023-05-05T02:59:15.351Z,14.41
2023-05-05T03:02:03.756Z,14.31
2023-05-05T03:04:42.963Z,14.17
2023-05-05T03:07:25.828Z,14.04
2023-05-05T03:10:07.585Z,13.90
2023-05-05T03:12:49.120Z,13.80
2023-05-05T03:15:23.727Z,13.71
2023-05-05T03:18:00.490Z,13.63
2023-05-05T03:20:34.381Z,13.54
2023-05-05T03:23:10.062Z,13.47
2023-05-05T03:25:49.947Z,13.41
2023-05-05T03:28:23.701Z,13.36
2023-05-05T03:30:56.410Z,13.31
2023-05-05T03:33:28.703Z,13.27
2023-05-05T03:36:01.100Z,13.23
2023-05-05T03:38:35.855Z,13.19
2023-05-05T03:41:08.088Z,13.14
2023-05-05T03:43:40.231Z,13.11
2023-05-05T03:46:13.097Z,13.08
2023-05-05T03:48:45.438Z,13.04
2023-05-05T03:51:17.884Z,13.01
2023-05-05T03:53:52.688Z,12.98
2023-05-05T03:56:25.125Z,12.95
2023-05-05T03:58:57.312Z,12.92
2023-05-05T04:01:30.159Z,12.89
2023-05-05T04:04:02.330Z,12.87
2023-05-05T04:06:34.825Z,12.85
2023-05-05T04:09:09.664Z,12.84
2023-05-05T04:11:41.885Z,12.83
2023-05-05T04:14:14.123Z,12.77
2023-05-05T04:16:46.568Z,12.72
2023-05-05T04:19:18.772Z,12.72
2023-05-05T04:21:52.166Z,12.71
2023-05-05T04:24:27.536Z,12.71
2023-05-05T04:26:59.923Z,12.70
2023-05-05T04:29:32.110Z,12.69
2023-05-05T04:32:04.399Z,12.68
2023-05-05T04:34:36.590Z,12.66
2023-05-05T04:37:08.817Z,12.65
2023-05-05T04:39:43.979Z,12.64
2023-05-05T04:42:16.192Z,12.64
2023-05-05T04:44:48.424Z,12.64
2023-05-05T04:47:20.597Z,12.64
2023-05-05T04:49:52.773Z,12.65
2023-05-05T04:52:24.933Z,12.67
2023-05-05T04:54:59.868Z,12.69
2023-05-05T04:57:33.463Z,12.71
2023-05-05T05:00:06.710Z,12.73
2023-05-05T05:02:39.879Z,12.76
2023-05-05T05:05:13.482Z,12.78
2023-05-05T05:07:46.083Z,12.79
2023-05-05T05:10:21.194Z,12.81
2023-05-05T05:12:53.514Z,12.83
2023-05-05T05:15:26.148Z,12.85
2023-05-05T05:17:58.410Z,12.87
2023-05-05T05:20:30.662Z,12.91
2023-05-05T05:23:04.628Z,12.96
2023-05-05T05:25:39.635Z,13.01
2023-05-05T05:28:11.799Z,13.05
2023-05-05T05:30:44.010Z,13.10
2023-05-05T05:33:16.232Z,13.15
2023-05-05T05:35:48.497Z,13.21
2023-05-05T05:38:20.709Z,13.28
2023-05-05T05:40:55.485Z,13.34
2023-05-05T05:43:27.793Z,13.42
2023-05-05T05:46:00.100Z,13.50
2023-05-05T05:48:32.367Z,13.56
2023-05-05T05:51:04.982Z,13.63
2023-05-05T05:53:37.271Z,13.69
2023-05-05T05:56:13.383Z,13.74
2023-05-05T05:58:45.849Z,13.82
2023-05-05T06:01:18.846Z,13.89
2023-05-05T06:03:51.204Z,13.97
2023-05-05T06:06:23.584Z,14.05
2023-05-05T06:08:55.812Z,14.14
2023-05-05T06:11:30.627Z,14.26
2023-05-05T06:14:02.828Z,14.33
2023-05-05T06:16:35.168Z,14.40
2023-05-05T06:19:09.883Z,14.51
2023-05-05T06:21:42.724Z,14.62
2023-05-05T06:24:14.915Z,14.75
2023-05-05T06:26:49.884Z,14.86
2023-05-05T06:29:22.516Z,14.97
2023-05-05T06:31:54.736Z,15.07
2023-05-05T06:34:27.165Z,15.16
2023-05-05T06:36:59.350Z,15.25
2023-05-05T06:39:31.709Z,15.34
2023-05-05T06:42:06.548Z,15.43
2023-05-05T06:44:39.236Z,15.51
2023-05-05T06:47:11.513Z,15.59
2023-05-05T06:49:43.752Z,15.67
2023-05-05T06:52:17.824Z,15.74
2023-05-05T06:54:50.076Z,15.81
2023-05-05T06:57:24.931Z,15.88
2023-05-05T06:59:57.828Z,15.95
2023-05-05T07:02:30.050Z,16.02
2023-05-05T07:05:02.479Z,16.09
2023-05-05T07:07:34.677Z,16.16
2023-05-05T07:10:07.916Z,16.20
2023-05-05T07:12:42.824Z,16.24
2023-05-05T07:15:26.748Z,16.32
2023-05-05T07:18:01.472Z,16.41
2023-05-05T07:20:33.770Z,16.48
2023-05-05T07:23:06.067Z,16.54
2023-05-05T07:25:39.523Z,16.61
2023-05-05T07:28:15.413Z,16.66
2023-05-05T07:30:47.710Z,16.68
2023-05-05T07:33:20.092Z,16.72
2023-05-05T07:35:52.879Z,16.77
2023-05-05T07:38:25.831Z,16.83
2023-05-05T07:40:58.011Z,16.89
2023-05-05T07:43:32.827Z,16.97
2023-05-05T07:46:05.264Z,17.07
2023-05-05T07:48:37.602Z,17.17
2023-05-05T07:51:09.912Z,17.31
2023-05-05T07:53:42.359Z,17.41
2023-05-05T07:56:14.692Z,17.50
2023-05-05T07:58:49.544Z,17.56
2023-05-05T08:01:21.896Z,17.63
2023-05-05T08:03:54.155Z,17.69
2023-05-05T08:06:27.901Z,17.75
2023-05-05T08:09:00.530Z,17.80
2023-05-05T08:11:32.798Z,17.86
2023-05-05T08:14:07.560Z,17.93
2023-05-05T08:16:39.750Z,18.04
2023-05-05T08:19:21.551Z,18.21
2023-05-05T08:22:01.546Z,18.40
2023-05-05T08:24:33.991Z,18.54
2023-05-05T08:27:06.221Z,18.67
2023-05-05T08:29:41.084Z,18.83
2023-05-05T08:32:13.309Z,19.03
2023-05-05T08:34:46.860Z,19.21
2023-05-05T08:37:19.102Z,19.36
2023-05-05T08:39:51.293Z,19.49
2023-05-05T08:42:36.117Z,19.56
2023-05-05T08:45:14.296Z,19.61
2023-05-05T08:47:46.861Z,19.64
2023-05-05T08:50:23.142Z,19.66
2023-05-05T08:53:12.205Z,19.70
2023-05-05T08:55:54.225Z,19.76
2023-05-05T08:58:29.035Z,19.84
2023-05-05T09:01:04.394Z,19.91
2023-05-05T09:03:37.295Z,19.94
2023-05-05T09:06:10.597Z,19.96
2023-05-05T09:08:43.702Z,19.99
2023-05-05T09:11:15.857Z,20.02
2023-05-05T09:13:48.555Z,20.06
2023-05-05T09:16:23.515Z,20.08
2023-05-05T09:19:05.066Z,20.13
2023-05-05T09:21:37.238Z,20.18
2023-05-05T09:24:12.185Z,20.21
2023-05-05T09:26:47.473Z,20.23
2023-05-05T09:29:23.798Z,20.27
2023-05-05T09:32:09.445Z,20.34
2023-05-05T09:34:42.010Z,20.41
2023-05-05T09:37:14.997Z,20.46
2023-05-05T09:39:58.525Z,20.47
2023-05-05T09:42:31.060Z,20.43
2023-05-05T09:45:03.468Z,20.36
2023-05-05T09:47:42.772Z,20.24
2023-05-05T09:50:18.668Z,20.11
2023-05-05T09:52:59.321Z,19.96
2023-05-05T09:55:32.290Z,19.88
2023-05-05T09:58:23.944Z,19.85
2023-05-05T10:00:56.969Z,19.84
2023-05-05T10:03:31.752Z,19.84
2023-05-05T10:06:04.858Z,19.85
2023-05-05T10:08:40.018Z,19.85
2023-05-05T10:11:12.772Z,19.81
2023-05-05T10:13:46.592Z,19.71
2023-05-05T10:16:23.640Z,19.46
2023-05-05T10:18:59.015Z,18.60
2023-05-05T10:21:36.747Z,15.67
2023-05-05T10:24:19.525Z,13.83
2023-05-05T10:26:55.908Z,13.63
2023-05-05T10:29:40.784Z,13.43
2023-05-05T10:35:04.551Z,13.32
2023-05-05T10:37:37.915Z,13.35
2023-05-05T10:40:12.280Z,13.38
2023-05-05T10:42:44.682Z,13.39
2023-05-05T10:45:17.097Z,13.43
2023-05-05T10:47:49.827Z,13.45
2023-05-05T10:50:34.774Z,13.46
2023-05-05T10:53:17.132Z,13.46
2023-05-05T10:55:58.007Z,13.40
2023-05-05T10:58:47.478Z,13.29
2023-05-05T11:01:34.944Z,13.20
2023-05-05T11:04:26.087Z,13.14
2023-05-05T11:07:28.300Z,13.10
2023-05-05T11:10:02.412Z,13.10
2023-05-05T11:12:38.590Z,13.11
2023-05-05T11:15:42.925Z,13.12
2023-05-05T11:18:37.240Z,13.13
2023-05-05T11:21:20.791Z,13.17
2023-05-05T11:23:56.377Z,13.20
2023-05-05T11:26:53.302Z,13.24
2023-05-05T11:29:25.517Z,13.30
2023-05-05T11:32:15.957Z,13.33
2023-05-05T11:34:54.618Z,13.37
2023-05-05T11:37:27.637Z,13.39
2023-05-05T11:40:13.952Z,13.40
2023-05-05T11:42:46.504Z,13.41
2023-05-05T11:45:27.008Z,13.43
2023-05-05T11:48:28.654Z,13.44
2023-05-05T11:51:02.561Z,13.45
2023-05-05T11:53:35.264Z,13.45
2023-05-05T11:56:29.482Z,13.45
2023-05-05T11:59:13.515Z,13.46
2023-05-05T12:01:46.907Z,13.46
2023-05-05T12:04:19.812Z,13.46
2023-05-05T12:06:52.402Z,13.47
2023-05-05T12:09:26.161Z,13.48
2023-05-05T12:12:02.889Z,13.49
2023-05-05T12:14:36.129Z,13.46
2023-05-05T12:17:12.215Z,13.43
2023-05-05T12:19:50.607Z,13.46
2023-05-05T12:22:28.740Z,13.49
2023-05-05T12:25:03.108Z,13.52
2023-05-05T12:27:38.904Z,13.54
2023-05-05T12:30:20.310Z,13.57
2023-05-05T12:32:52.527Z,13.61
2023-05-05T12:35:25.247Z,13.65
2023-05-05T12:37:58.566Z,13.68
2023-05-05T12:40:54.868Z,13.70
2023-05-05T12:43:38.783Z,13.72
2023-05-05T12:46:14.595Z,13.74
2023-05-05T12:48:48.313Z,13.75
2023-05-05T12:51:23.547Z,13.76
2023-05-05T12:54:07.799Z,13.79
2023-05-05T12:56:44.290Z,13.82
2023-05-05T12:59:34.211Z,13.86
2023-05-05T13:02:06.448Z,13.90
2023-05-05T13:04:51.466Z,13.94
2023-05-05T13:07:25.682Z,13.97
2023-05-05T13:10:11.797Z,14.00
2023-05-05T13:12:44.029Z,14.05
2023-05-05T13:15:19.649Z,14.10
2023-05-05T13:17:51.916Z,14.15
2023-05-05T13:20:24.100Z,14.19
2023-05-05T13:22:56.399Z,14.20
2023-05-05T13:25:28.893Z,14.20
2023-05-05T13:28:01.073Z,14.19
2023-05-05T13:30:36.033Z,14.19
2023-05-05T13:33:08.414Z,14.20
2023-05-05T13:35:42.264Z,14.22
2023-05-05T13:38:16.065Z,14.23
2023-05-05T13:40:52.444Z,14.25
2023-05-05T13:43:24.724Z,14.27
2023-05-05T13:46:12.315Z,14.27
2023-05-05T13:48:56.044Z,14.27
2023-05-05T13:51:28.795Z,14.25
2023-05-05T13:54:00.943Z,14.23
2023-05-05T13:56:33.311Z,14.19
2023-05-05T13:59:05.610Z,14.15
2023-05-05T14:01:40.412Z,14.13
2023-05-05T14:04:12.939Z,14.10
2023-05-05T14:06:45.379Z,14.07
2023-05-05T14:09:17.537Z,14.05
2023-05-05T14:11:49.735Z,14.04
2023-05-05T14:14:22.915Z,14.00
2023-05-05T14:16:58.279Z,13.95
2023-05-05T14:19:31.113Z,13.98
2023-05-05T14:22:03.327Z,14.01
2023-05-05T14:24:35.483Z,14.05
2023-05-05T14:27:07.696Z,14.08
2023-05-05T14:29:39.955Z,14.11
2023-05-05T14:32:14.799Z,14.14
2023-05-05T14:34:50.227Z,14.18
2023-05-05T14:37:22.662Z,14.22
2023-05-05T14:39:54.881Z,14.26
2023-05-05T14:42:27.237Z,14.30
2023-05-05T14:44:59.539Z,14.33
2023-05-05T14:47:34.383Z,14.44
2023-05-05T14:50:09.825Z,14.73
2023-05-05T14:52:42.240Z,15.36
2023-05-05T14:55:14.834Z,16.47
2023-05-05T14:57:47.012Z,17.80
2023-05-05T15:00:20.204Z,18.74
2023-05-05T15:02:55.022Z,18.84
2023-05-05T15:05:27.359Z,18.80
2023-05-05T15:07:59.575Z,18.72
2023-05-05T15:10:31.758Z,18.58
2023-05-05T15:13:03.933Z,18.34
2023-05-05T15:15:36.180Z,18.03
2023-05-05T15:18:11.231Z,17.69
2023-05-05T15:20:43.548Z,17.42
2023-05-05T15:23:16.301Z,17.29
2023-05-05T15:25:48.562Z,17.19
2023-05-05T15:28:20.716Z,17.12
2023-05-05T15:30:52.964Z,17.09
2023-05-05T15:33:27.778Z,17.09
2023-05-05T15:36:00.551Z,17.11
2023-05-05T15:38:34.551Z,17.20
2023-05-05T15:41:07.158Z,17.52
2023-05-05T15:43:39.330Z,17.76
2023-05-05T15:46:11.671Z,17.96
2023-05-05T15:48:46.546Z,18.06
2023-05-05T15:51:18.708Z,18.10
2023-05-05T15:53:52.480Z,18.12
2023-05-05T15:56:27.389Z,18.13
2023-05-05T15:58:59.838Z,18.11
2023-05-05T16:01:33.548Z,18.07
2023-05-05T16:04:08.693Z,18.00
2023-05-05T16:06:41.084Z,17.93
2023-05-05T16:09:13.212Z,17.86
2023-05-05T16:11:45.535Z,17.82
2023-05-05T16:14:17.708Z,17.90
2023-05-05T16:16:50.000Z,19.05
2023-05-05T16:19:26.805Z,20.55
2023-05-05T16:21:59.538Z,21.71
2023-05-05T16:24:31.715Z,22.25
2023-05-05T16:27:03.918Z,22.69
2023-05-05T16:29:36.158Z,22.90
2023-05-05T16:32:08.700Z,23.38
2023-05-05T16:34:43.534Z,24.77
2023-05-05T16:37:15.731Z,26.66
2023-05-05T16:39:47.870Z,27.51
2023-05-05T16:42:20.438Z,27.95
2023-05-05T16:44:52.822Z,28.26
2023-05-05T16:47:25.443Z,28.32
2023-05-05T16:50:00.375Z,28.38
2023-05-05T16:52:32.527Z,28.39
2023-05-05T16:55:04.950Z,28.48
2023-05-05T16:57:37.129Z,28.62
2023-05-05T17:00:10.807Z,28.74
2023-05-05T17:02:42.995Z,28.82
2023-05-05T17:05:19.324Z,28.94
2023-05-05T17:07:52.371Z,29.06
2023-05-05T17:10:24.787Z,29.07
2023-05-05T17:12:56.947Z,29.11
2023-05-05T17:15:29.283Z,29.12
2023-05-05T17:18:01.437Z,29.13
2023-05-05T17:20:37.722Z,29.14
2023-05-05T17:23:09.921Z,29.08
2023-05-05T17:25:42.212Z,29.04
2023-05-05T17:28:14.980Z,29.00
2023-05-05T17:30:47.235Z,28.90
2023-05-05T17:33:22.141Z,28.78
2023-05-05T17:35:58.231Z,28.64
2023-05-05T17:38:30.482Z,28.44
2023-05-05T17:41:02.754Z,28.35
2023-05-05T17:43:34.974Z,28.23
2023-05-05T17:46:07.459Z,27.64
2023-05-05T17:48:39.716Z,26.31
2023-05-05T17:51:14.599Z,23.60
2023-05-05T17:53:46.957Z,22.11
2023-05-05T17:56:19.222Z,20.98
2023-05-05T17:58:54.466Z,20.16
2023-05-05T18:01:26.883Z,19.63
2023-05-05T18:03:59.081Z,19.12
2023-05-05T18:06:34.007Z,18.79
2023-05-05T18:09:06.338Z,18.55
2023-05-05T18:11:38.472Z,18.31
2023-05-05T18:14:11.085Z,18.02
2023-05-05T18:16:48.912Z,17.55
2023-05-05T18:19:22.094Z,17.49
2023-05-05T18:21:58.511Z,17.41
2023-05-05T18:24:31.976Z,17.31
2023-05-05T18:27:04.273Z,17.23
2023-05-05T18:29:37.478Z,17.15
2023-05-05T18:32:10.270Z,17.07
2023-05-05T18:34:42.673Z,16.95
2023-05-05T18:37:17.466Z,16.82
2023-05-05T18:39:49.858Z,16.67
2023-05-05T18:42:22.692Z,16.53
2023-05-05T18:44:55.003Z,16.39
2023-05-05T18:47:27.122Z,16.23
2023-05-05T18:49:59.345Z,16.06
2023-05-05T18:52:34.168Z,15.92
2023-05-05T18:55:07.034Z,15.78
2023-05-05T18:57:39.379Z,15.65
2023-05-05T19:00:13.140Z,15.53
2023-05-05T19:02:45.342Z,15.39
2023-05-05T19:05:17.582Z,15.26
2023-05-05T19:07:52.415Z,15.15
2023-05-05T19:10:24.585Z,15.04
2023-05-05T19:12:56.809Z,14.93
2023-05-05T19:15:29.334Z,14.83
2023-05-05T19:18:01.874Z,14.71
2023-05-05T19:20:34.059Z,14.58
2023-05-05T19:23:08.838Z,14.46
2023-05-05T19:25:41.729Z,14.34
2023-05-05T19:28:14.136Z,14.23
2023-05-05T19:30:46.735Z,14.12
2023-05-05T19:33:18.990Z,14.01
2023-05-05T19:35:51.309Z,13.91
2023-05-05T19:38:26.093Z,13.82
2023-05-05T19:40:58.320Z,13.73
2023-05-05T19:43:30.459Z,13.65
2023-05-05T19:46:02.931Z,13.58
2023-05-05T19:48:35.164Z,13.50
2023-05-05T19:51:07.318Z,13.42
2023-05-05T19:53:43.023Z,13.32
2023-05-05T19:56:15.293Z,13.23
2023-05-05T19:58:59.132Z,13.16
2023-05-05T20:01:33.153Z,13.06
2023-05-05T20:04:06.266Z,12.99
2023-05-05T20:06:38.766Z,12.93
2023-05-05T20:09:13.595Z,12.86
2023-05-05T20:11:45.968Z,12.79
2023-05-05T20:14:18.196Z,12.70
2023-05-05T20:16:50.817Z,12.53
2023-05-05T20:19:23.087Z,12.48
2023-05-05T20:21:55.301Z,12.44
2023-05-05T20:24:30.174Z,12.39
2023-05-05T20:27:02.473Z,12.36
2023-05-05T20:29:34.602Z,12.33
2023-05-05T20:32:06.974Z,12.30
2023-05-05T20:34:39.424Z,12.27
2023-05-05T20:37:13.683Z,12.23
2023-05-05T20:39:48.687Z,12.18
2023-05-05T20:42:20.877Z,12.13
2023-05-05T20:44:53.206Z,12.07
2023-05-05T20:47:25.601Z,12.03
2023-05-05T20:49:57.819Z,12.01
2023-05-05T20:52:30.121Z,11.99
2023-05-05T20:55:05.005Z,11.97
2023-05-05T20:57:37.718Z,11.94
2023-05-05T21:00:11.828Z,11.93
2023-05-05T21:02:44.480Z,11.91
2023-05-05T21:05:17.774Z,11.89
2023-05-05T21:07:50.030Z,11.86
2023-05-05T21:10:25.009Z,11.83
2023-05-05T21:12:57.197Z,11.80
2023-05-05T21:15:29.646Z,11.76
2023-05-05T21:18:02.099Z,11.71
2023-05-05T21:20:34.337Z,11.66
2023-05-05T21:23:06.547Z,11.62
2023-05-05T21:25:41.684Z,11.58
2023-05-05T21:28:14.028Z,11.55
2023-05-05T21:30:54.877Z,11.51
2023-05-05T21:33:37.314Z,11.46
2023-05-05T21:36:10.239Z,11.43
2023-05-05T21:38:42.404Z,11.40
2023-05-05T21:41:17.132Z,11.36
2023-05-05T21:43:49.320Z,11.32
2023-05-05T21:46:22.209Z,11.28
2023-05-05T21:48:54.440Z,11.23
2023-05-05T21:51:27.511Z,11.20
2023-05-05T21:53:59.727Z,11.16
2023-05-05T21:56:34.753Z,11.13
2023-05-05T21:59:08.404Z,11.09
2023-05-05T22:01:40.679Z,11.05
2023-05-05T22:04:12.998Z,11.01
2023-05-05T22:06:45.299Z,10.97
2023-05-05T22:09:17.541Z,10.92
2023-05-05T22:11:52.295Z,10.90
2023-05-05T22:14:24.441Z,10.85
2023-05-05T22:16:56.869Z,10.72
2023-05-05T22:19:29.111Z,10.70
2023-05-05T22:22:02.955Z,10.68
2023-05-05T22:24:35.756Z,10.66
2023-05-05T22:27:10.524Z,10.66
2023-05-05T22:29:42.624Z,10.66
2023-05-05T22:32:14.800Z,10.64
2023-05-05T22:34:47.115Z,10.61
2023-05-05T22:37:19.273Z,10.60
2023-05-05T22:39:51.454Z,10.60
2023-05-05T22:42:26.970Z,10.60
2023-05-05T22:44:59.233Z,10.61
2023-05-05T22:47:31.475Z,10.61
2023-05-05T22:50:03.774Z,10.62
2023-05-05T22:52:36.415Z,10.62
2023-05-05T22:55:09.749Z,10.63
2023-05-05T22:57:45.347Z,10.65
2023-05-05T23:00:18.461Z,10.68
2023-05-05T23:02:50.779Z,10.71
2023-05-05T23:05:23.283Z,10.74
2023-05-05T23:07:55.471Z,10.77
2023-05-05T23:10:27.669Z,10.78
2023-05-05T23:13:02.540Z,10.79
2023-05-05T23:15:35.256Z,10.80
2023-05-05T23:18:07.620Z,10.83
2023-05-05T23:20:39.850Z,10.86
2023-05-05T23:23:12.058Z,10.90
2023-05-05T23:25:44.413Z,10.92
2023-05-05T23:28:20.320Z,10.94
2023-05-05T23:30:52.793Z,10.96
2023-05-05T23:33:25.171Z,10.97
2023-05-05T23:35:57.872Z,10.97
2023-05-05T23:38:30.045Z,10.97
2023-05-05T23:41:02.213Z,10.98
2023-05-05T23:43:37.024Z,10.98
2023-05-05T23:46:09.474Z,10.99
2023-05-05T23:48:41.947Z,11.01
2023-05-05T23:51:14.183Z,11.03
2023-05-05T23:53:46.496Z,11.04
2023-05-05T23:56:18.810Z,11.03
2023-05-05T23:58:53.606Z,11.01
